Buffalo Narrows, Canada
Current Conditions -  °F | °C
As of 2:00 PM on Sunday 21 Dec 2014 (Local Time) from CYVT Reporting Station
Haze Haze  
Wind Chill:   Ceiling: 2000
Heat Index: 18°   Visibility: 6mi
Dew Point: 16°   Wind: 6mph
Humidity: 93%   Direction: 90°E
Pressure: 29.5"   Gusts: NA
Location:  55.87°N, 108.48°W
Report Text: CYVT 212000Z 09005KT 6SM BR FEW010 OVC020 M08/M09 A2950 RMK ST2SC6 SLP021
Loading
Personal Weather Stations






























Interactive Weather Map New forecast layout! Learn more

10-Day Weather Forecast

Advertisements
Track Severe Weather on mobile